sensor_id;sensor_type;location;lat;lon;timestamp;pressure;altitude;pressure_sealevel;temperature;humidity
38227;BME280;24026;49.446;8.576;2023-07-02T00:02:18;99874.13;;;23.78;52.97
38227;BME280;24026;49.446;8.576;2023-07-02T00:04:39;99868.69;;;23.78;52.46
38227;BME280;24026;49.446;8.576;2023-07-02T00:06:59;99875.28;;;23.77;52.79
38227;BME280;24026;49.446;8.576;2023-07-02T00:09:20;99878.34;;;23.76;52.84
38227;BME280;24026;49.446;8.576;2023-07-02T00:11:42;99879.09;;;23.76;52.74
38227;BME280;24026;49.446;8.576;2023-07-02T00:14:02;99891.09;;;23.75;52.81
38227;BME280;24026;49.446;8.576;2023-07-02T00:16:23;99887.59;;;23.75;52.79
38227;BME280;24026;49.446;8.576;2023-07-02T00:18:43;99882.50;;;23.73;52.70
38227;BME280;24026;49.446;8.576;2023-07-02T00:21:05;99881.38;;;23.74;52.67
38227;BME280;24026;49.446;8.576;2023-07-02T00:23:25;99883.63;;;23.72;52.63
38227;BME280;24026;49.446;8.576;2023-07-02T00:25:46;99882.06;;;23.71;52.72
38227;BME280;24026;49.446;8.576;2023-07-02T00:28:06;99886.69;;;23.71;52.84
38227;BME280;24026;49.446;8.576;2023-07-02T00:30:26;99890.19;;;23.71;52.75
38227;BME280;24026;49.446;8.576;2023-07-02T00:32:47;99887.50;;;23.71;52.73
38227;BME280;24026;49.446;8.576;2023-07-02T00:35:07;99894.84;;;23.71;52.52
38227;BME280;24026;49.446;8.576;2023-07-02T00:37:28;99894.84;;;23.71;52.77
38227;BME280;24026;49.446;8.576;2023-07-02T00:39:48;99885.13;;;23.70;52.46
38227;BME280;24026;49.446;8.576;2023-07-02T00:42:08;99889.75;;;23.69;52.54
38227;BME280;24026;49.446;8.576;2023-07-02T00:44:31;99890.53;;;23.70;52.66
38227;BME280;24026;49.446;8.576;2023-07-02T00:46:52;99889.75;;;23.69;52.50
38227;BME280;24026;49.446;8.576;2023-07-02T00:49:12;99890.88;;;23.68;52.26
38227;BME280;24026;49.446;8.576;2023-07-02T00:51:32;99899.00;;;23.68;52.47
38227;BME280;24026;49.446;8.576;2023-07-02T00:53:55;99897.44;;;23.67;52.17
38227;BME280;24026;49.446;8.576;2023-07-02T00:56:15;99902.06;;;23.66;52.37
38227;BME280;24026;49.446;8.576;2023-07-02T00:58:39;99906.72;;;23.66;52.19
38227;BME280;24026;49.446;8.576;2023-07-02T01:01:00;99900.84;;;23.64;52.08
38227;BME280;24026;49.446;8.576;2023-07-02T01:03:21;99900.84;;;23.64;52.19
38227;BME280;24026;49.446;8.576;2023-07-02T01:05:41;99891.91;;;23.63;52.12
38227;BME280;24026;49.446;8.576;2023-07-02T01:08:05;99905.47;;;23.63;52.10
38227;BME280;24026;49.446;8.576;2023-07-02T01:10:28;99907.38;;;23.63;52.04
38227;BME280;24026;49.446;8.576;2023-07-02T01:12:51;99907.38;;;23.63;51.90
38227;BME280;24026;49.446;8.576;2023-07-02T01:15:12;99914.75;;;23.62;51.88
38227;BME280;24026;49.446;8.576;2023-07-02T01:17:34;99906.59;;;23.62;51.76
38227;BME280;24026;49.446;8.576;2023-07-02T01:20:01;99904.22;;;23.61;52.34
38227;BME280;24026;49.446;8.576;2023-07-02T01:22:23;99908.06;;;23.60;51.93
38227;BME280;24026;49.446;8.576;2023-07-02T01:24:45;99907.28;;;23.59;51.52
38227;BME280;24026;49.446;8.576;2023-07-02T01:27:08;99916.53;;;23.58;51.59
38227;BME280;24026;49.446;8.576;2023-07-02T01:29:30;99917.31;;;23.59;51.78
38227;BME280;24026;49.446;8.576;2023-07-02T01:31:51;99921.97;;;23.58;51.50
38227;BME280;24026;49.446;8.576;2023-07-02T01:34:12;99922.31;;;23.57;51.30
38227;BME280;24026;49.446;8.576;2023-07-02T01:36:32;99923.09;;;23.57;51.48
38227;BME280;24026;49.446;8.576;2023-07-02T01:38:53;99918.03;;;23.56;51.39
38227;BME280;24026;49.446;8.576;2023-07-02T01:41:13;99923.44;;;23.56;51.36
38227;BME280;24026;49.446;8.576;2023-07-02T01:43:33;99920.72;;;23.56;51.38
38227;BME280;24026;49.446;8.576;2023-07-02T01:45:54;99921.84;;;23.55;50.93
38227;BME280;24026;49.446;8.576;2023-07-02T01:48:16;99921.84;;;23.55;50.85
38227;BME280;24026;49.446;8.576;2023-07-02T01:50:37;99928.41;;;23.54;51.16
38227;BME280;24026;49.446;8.576;2023-07-02T01:52:57;99931.91;;;23.54;50.87
38227;BME280;24026;49.446;8.576;2023-07-02T01:55:17;99921.06;;;23.54;50.64
38227;BME280;24026;49.446;8.576;2023-07-02T01:57:38;99933.81;;;23.54;50.99
38227;BME280;24026;49.446;8.576;2023-07-02T01:59:58;99927.63;;;23.53;51.03
38227;BME280;24026;49.446;8.576;2023-07-02T02:02:19;99926.03;;;23.52;50.95
38227;BME280;24026;49.446;8.576;2023-07-02T02:04:39;99926.03;;;23.52;50.72
38227;BME280;24026;49.446;8.576;2023-07-02T02:07:00;99928.72;;;23.52;50.72
38227;BME280;24026;49.446;8.576;2023-07-02T02:09:20;99930.66;;;23.52;50.60
38227;BME280;24026;49.446;8.576;2023-07-02T02:11:43;99927.97;;;23.52;50.63
38227;BME280;24026;49.446;8.576;2023-07-02T02:14:04;99929.88;;;23.51;50.48
38227;BME280;24026;49.446;8.576;2023-07-02T02:16:25;99937.22;;;23.51;50.26
38227;BME280;24026;49.446;8.576;2023-07-02T02:18:45;99922.88;;;23.50;50.35
38227;BME280;24026;49.446;8.576;2023-07-02T02:21:06;99931.00;;;23.50;50.21
38227;BME280;24026;49.446;8.576;2023-07-02T02:23:26;99924.81;;;23.49;50.52
38227;BME280;24026;49.446;8.576;2023-07-02T02:25:47;99932.94;;;23.49;50.24
38227;BME280;24026;49.446;8.576;2023-07-02T02:28:07;99931.34;;;23.48;50.23
38227;BME280;24026;49.446;8.576;2023-07-02T02:30:28;99932.16;;;23.49;50.22
38227;BME280;24026;49.446;8.576;2023-07-02T02:32:48;99931.34;;;23.48;50.18
38227;BME280;24026;49.446;8.576;2023-07-02T02:35:09;99935.19;;;23.47;50.04
38227;BME280;24026;49.446;8.576;2023-07-02T02:37:29;99927.06;;;23.47;50.29
38227;BME280;24026;49.446;8.576;2023-07-02T02:39:50;99922.75;;;23.46;49.79
38227;BME280;24026;49.446;8.576;2023-07-02T02:42:11;99922.75;;;23.46;49.71
38227;BME280;24026;49.446;8.576;2023-07-02T02:44:31;99918.47;;;23.45;49.73
38227;BME280;24026;49.446;8.576;2023-07-02T02:46:52;99925.47;;;23.46;49.79
38227;BME280;24026;49.446;8.576;2023-07-02T02:49:13;99928.53;;;23.45;49.65
38227;BME280;24026;49.446;8.576;2023-07-02T02:51:33;99930.44;;;23.44;49.68
38227;BME280;24026;49.446;8.576;2023-07-02T02:53:53;99927.41;;;23.46;49.66
38227;BME280;24026;49.446;8.576;2023-07-02T02:56:14;99933.16;;;23.44;49.71
38227;BME280;24026;49.446;8.576;2023-07-02T02:58:34;99933.16;;;23.44;49.33
38227;BME280;24026;49.446;8.576;2023-07-02T03:00:55;99928.84;;;23.43;49.20
38227;BME280;24026;49.446;8.576;2023-07-02T03:03:15;99933.50;;;23.43;49.32
38227;BME280;24026;49.446;8.576;2023-07-02T03:05:37;99932.72;;;23.42;49.23
38227;BME280;24026;49.446;8.576;2023-07-02T03:07:57;99931.91;;;23.42;49.24
38227;BME280;24026;49.446;8.576;2023-07-02T03:10:18;99939.25;;;23.41;49.08
38227;BME280;24026;49.446;8.576;2023-07-02T03:12:38;99928.41;;;23.41;49.01
38227;BME280;24026;49.446;8.576;2023-07-02T03:14:58;99942.31;;;23.40;49.10
38227;BME280;24026;49.446;8.576;2023-07-02T03:17:19;99945.00;;;23.40;49.04
38227;BME280;24026;49.446;8.576;2023-07-02T03:19:40;99950.78;;;23.38;49.13
38227;BME280;24026;49.446;8.576;2023-07-02T03:22:00;99954.25;;;23.39;48.62
38227;BME280;24026;49.446;8.576;2023-07-02T03:24:21;99949.22;;;23.37;48.97
38227;BME280;24026;49.446;8.576;2023-07-02T03:26:45;99950.00;;;23.38;48.96
38227;BME280;24026;49.446;8.576;2023-07-02T03:29:06;99947.63;;;23.36;48.60
38227;BME280;24026;49.446;8.576;2023-07-02T03:31:26;99951.09;;;23.37;48.40
38227;BME280;24026;49.446;8.576;2023-07-02T03:33:47;99954.97;;;23.36;48.63
38227;BME280;24026;49.446;8.576;2023-07-02T03:36:07;99955.31;;;23.34;48.27
38227;BME280;24026;49.446;8.576;2023-07-02T03:38:27;99954.50;;;23.34;48.46
38227;BME280;24026;49.446;8.576;2023-07-02T03:40:48;99957.19;;;23.34;48.33
38227;BME280;24026;49.446;8.576;2023-07-02T03:43:08;99959.91;;;23.34;48.47
38227;BME280;24026;49.446;8.576;2023-07-02T03:45:29;99962.97;;;23.32;48.22
38227;BME280;24026;49.446;8.576;2023-07-02T03:47:49;99962.97;;;23.32;48.03
38227;BME280;24026;49.446;8.576;2023-07-02T03:50:09;99968.38;;;23.32;48.11
38227;BME280;24026;49.446;8.576;2023-07-02T03:52:30;99971.91;;;23.33;47.93
38227;BME280;24026;49.446;8.576;2023-07-02T03:54:50;99972.25;;;23.31;48.20
38227;BME280;24026;49.446;8.576;2023-07-02T03:57:11;99973.34;;;23.30;47.90
38227;BME280;24026;49.446;8.576;2023-07-02T03:59:31;99983.41;;;23.29;47.94
38227;BME280;24026;49.446;8.576;2023-07-02T04:01:52;99977.22;;;23.29;47.95
38227;BME280;24026;49.446;8.576;2023-07-02T04:04:12;99986.13;;;23.29;48.08
38227;BME280;24026;49.446;8.576;2023-07-02T04:06:32;99982.97;;;23.27;47.75
38227;BME280;24026;49.446;8.576;2023-07-02T04:08:54;99986.78;;;23.26;47.81
38227;BME280;24026;49.446;8.576;2023-07-02T04:11:15;99992.22;;;23.26;47.92
38227;BME280;24026;49.446;8.576;2023-07-02T04:13:35;99996.84;;;23.26;47.97
38227;BME280;24026;49.446;8.576;2023-07-02T04:15:56;99998.75;;;23.25;47.82
38227;BME280;24026;49.446;8.576;2023-07-02T04:18:17;100000.69;;;23.25;47.99
38227;BME280;24026;49.446;8.576;2023-07-02T04:20:38;100012.66;;;23.24;47.57
38227;BME280;24026;49.446;8.576;2023-07-02T04:22:58;100010.75;;;23.24;47.73
38227;BME280;24026;49.446;8.576;2023-07-02T04:25:19;100007.59;;;23.22;47.40
38227;BME280;24026;49.446;8.576;2023-07-02T04:27:39;100007.59;;;23.22;47.81
38227;BME280;24026;49.446;8.576;2023-07-02T04:30:00;99998.63;;;23.22;47.58
38227;BME280;24026;49.446;8.576;2023-07-02T04:32:20;100008.69;;;23.21;47.58
38227;BME280;24026;49.446;8.576;2023-07-02T04:34:40;100006.78;;;23.22;47.75
38227;BME280;24026;49.446;8.576;2023-07-02T04:37:03;100004.06;;;23.22;47.36
38227;BME280;24026;49.446;8.576;2023-07-02T04:39:25;100012.19;;;23.22;47.40
38227;BME280;24026;49.446;8.576;2023-07-02T04:41:45;100011.75;;;23.20;47.66
38227;BME280;24026;49.446;8.576;2023-07-02T04:44:06;100010.97;;;23.19;47.38
38227;BME280;24026;49.446;8.576;2023-07-02T04:46:26;100008.25;;;23.19;47.47
38227;BME280;24026;49.446;8.576;2023-07-02T04:48:47;100005.22;;;23.21;47.40
38227;BME280;24026;49.446;8.576;2023-07-02T04:51:07;100013.66;;;23.19;47.16
38227;BME280;24026;49.446;8.576;2023-07-02T04:53:27;100019.88;;;23.20;47.35
38227;BME280;24026;49.446;8.576;2023-07-02T04:55:48;100019.88;;;23.20;47.61
38227;BME280;24026;49.446;8.576;2023-07-02T04:58:08;100025.28;;;23.20;47.52
38227;BME280;24026;49.446;8.576;2023-07-02T05:00:28;100026.41;;;23.19;47.34
38227;BME280;24026;49.446;8.576;2023-07-02T05:02:49;100022.59;;;23.20;47.37
38227;BME280;24026;49.446;8.576;2023-07-02T05:05:09;100026.88;;;23.21;47.26
38227;BME280;24026;49.446;8.576;2023-07-02T05:07:30;100034.22;;;23.20;47.54
38227;BME280;24026;49.446;8.576;2023-07-02T05:09:51;100039.63;;;23.20;47.15
38227;BME280;24026;49.446;8.576;2023-07-02T05:12:13;100036.13;;;23.20;47.46
38227;BME280;24026;49.446;8.576;2023-07-02T05:14:33;100040.44;;;23.21;47.34
38227;BME280;24026;49.446;8.576;2023-07-02T05:16:53;100032.31;;;23.21;47.11
38227;BME280;24026;49.446;8.576;2023-07-02T05:19:14;100035.81;;;23.21;47.13
38227;BME280;24026;49.446;8.576;2023-07-02T05:21:34;100042.00;;;23.22;47.24
38227;BME280;24026;49.446;8.576;2023-07-02T05:23:55;100043.59;;;23.23;47.22
38227;BME280;24026;49.446;8.576;2023-07-02T05:26:15;100047.44;;;23.22;47.03
38227;BME280;24026;49.446;8.576;2023-07-02T05:28:36;100044.72;;;23.22;47.20
38227;BME280;24026;49.446;8.576;2023-07-02T05:30:56;100050.94;;;23.22;46.93
38227;BME280;24026;49.446;8.576;2023-07-02T05:33:17;100045.53;;;23.22;46.84
38227;BME280;24026;49.446;8.576;2023-07-02T05:35:37;100043.59;;;23.23;47.08
38227;BME280;24026;49.446;8.576;2023-07-02T05:37:57;100044.38;;;23.23;46.87
38227;BME280;24026;49.446;8.576;2023-07-02T05:40:18;100046.31;;;23.23;46.87
38227;BME280;24026;49.446;8.576;2023-07-02T05:42:38;100045.97;;;23.24;46.98
38227;BME280;24026;49.446;8.576;2023-07-02T05:44:58;100046.75;;;23.25;46.66
38227;BME280;24026;49.446;8.576;2023-07-02T05:47:19;100042.13;;;23.25;46.74
38227;BME280;24026;49.446;8.576;2023-07-02T05:49:41;100042.13;;;23.25;46.74
38227;BME280;24026;49.446;8.576;2023-07-02T05:52:03;100045.66;;;23.26;46.69
38227;BME280;24026;49.446;8.576;2023-07-02T05:54:23;100042.94;;;23.26;46.74
38227;BME280;24026;49.446;8.576;2023-07-02T05:56:44;100049.94;;;23.27;46.70
38227;BME280;24026;49.446;8.576;2023-07-02T05:59:04;100049.94;;;23.27;46.76
38227;BME280;24026;49.446;8.576;2023-07-02T06:01:24;100054.22;;;23.28;46.75
38227;BME280;24026;49.446;8.576;2023-07-02T06:03:45;100064.75;;;23.29;46.74
38227;BME280;24026;49.446;8.576;2023-07-02T06:06:05;100059.78;;;23.31;46.54
38227;BME280;24026;49.446;8.576;2023-07-02T06:08:26;100065.19;;;23.31;46.27
38227;BME280;24026;49.446;8.576;2023-07-02T06:10:47;100060.56;;;23.32;46.19
38227;BME280;24026;49.446;8.576;2023-07-02T06:13:08;100061.38;;;23.33;46.43
38227;BME280;24026;49.446;8.576;2023-07-02T06:15:29;100061.03;;;23.34;46.39
38227;BME280;24026;49.446;8.576;2023-07-02T06:17:49;100069.16;;;23.34;46.38
38227;BME280;24026;49.446;8.576;2023-07-02T06:20:10;100068.03;;;23.35;46.45
38227;BME280;24026;49.446;8.576;2023-07-02T06:22:31;100064.19;;;23.36;46.22
38227;BME280;24026;49.446;8.576;2023-07-02T06:24:51;100066.56;;;23.38;45.95
38227;BME280;24026;49.446;8.576;2023-07-02T06:27:11;100068.94;;;23.39;46.23
38227;BME280;24026;49.446;8.576;2023-07-02T06:29:32;100068.63;;;23.41;46.30
38227;BME280;24026;49.446;8.576;2023-07-02T06:31:52;100075.59;;;23.42;46.01
38227;BME280;24026;49.446;8.576;2023-07-02T06:34:13;100075.28;;;23.43;45.82
38227;BME280;24026;49.446;8.576;2023-07-02T06:36:37;100067.59;;;23.45;45.66
38227;BME280;24026;49.446;8.576;2023-07-02T06:38:57;100070.78;;;23.47;45.94
38227;BME280;24026;49.446;8.576;2023-07-02T06:41:17;100079.69;;;23.48;45.61
38227;BME280;24026;49.446;8.576;2023-07-02T06:43:38;100076.66;;;23.49;45.59
38227;BME280;24026;49.446;8.576;2023-07-02T06:45:58;100074.38;;;23.52;45.73
38227;BME280;24026;49.446;8.576;2023-07-02T06:48:19;100079.47;;;23.53;45.55
38227;BME280;24026;49.446;8.576;2023-07-02T06:50:43;100072.94;;;23.54;45.37
38227;BME280;24026;49.446;8.576;2023-07-02T06:53:04;100080.75;;;23.56;45.40
38227;BME280;24026;49.446;8.576;2023-07-02T06:55:24;100085.81;;;23.57;45.24
38227;BME280;24026;49.446;8.576;2023-07-02T06:57:45;100088.19;;;23.59;45.17
38227;BME280;24026;49.446;8.576;2023-07-02T07:00:06;100079.72;;;23.60;45.15
38227;BME280;24026;49.446;8.576;2023-07-02T07:02:28;100075.53;;;23.63;44.99
38227;BME280;24026;49.446;8.576;2023-07-02T07:04:48;100077.13;;;23.64;44.87
38227;BME280;24026;49.446;8.576;2023-07-02T07:07:09;100076.00;;;23.65;44.88
38227;BME280;24026;49.446;8.576;2023-07-02T07:09:29;100081.88;;;23.67;44.83
38227;BME280;24026;49.446;8.576;2023-07-02T07:11:50;100082.34;;;23.69;44.72
38227;BME280;24026;49.446;8.576;2023-07-02T07:14:10;100092.03;;;23.70;44.72
38227;BME280;24026;49.446;8.576;2023-07-02T07:16:30;100078.94;;;23.72;44.56
38227;BME280;24026;49.446;8.576;2023-07-02T07:18:51;100086.72;;;23.74;44.24
38227;BME280;24026;49.446;8.576;2023-07-02T07:21:11;100080.97;;;23.75;44.12
38227;BME280;24026;49.446;8.576;2023-07-02T07:23:32;100076.03;;;23.77;44.24
38227;BME280;24026;49.446;8.576;2023-07-02T07:25:52;100077.59;;;23.78;44.19
38227;BME280;24026;49.446;8.576;2023-07-02T07:28:12;100070.72;;;23.81;44.18
38227;BME280;24026;49.446;8.576;2023-07-02T07:30:35;100073.13;;;23.82;43.73
38227;BME280;24026;49.446;8.576;2023-07-02T07:32:56;100074.69;;;23.83;44.01
38227;BME280;24026;49.446;8.576;2023-07-02T07:35:17;100085.63;;;23.87;43.64
38227;BME280;24026;49.446;8.576;2023-07-02T07:37:38;100075.59;;;23.88;43.63
38227;BME280;24026;49.446;8.576;2023-07-02T07:39:58;100078.75;;;23.90;43.51
38227;BME280;24026;49.446;8.576;2023-07-02T07:42:19;100083.06;;;23.91;43.54
38227;BME280;24026;49.446;8.576;2023-07-02T07:44:39;100080.81;;;23.93;43.40
38227;BME280;24026;49.446;8.576;2023-07-02T07:46:59;100086.69;;;23.95;43.54
38227;BME280;24026;49.446;8.576;2023-07-02T07:49:20;100083.63;;;23.96;43.18
38227;BME280;24026;49.446;8.576;2023-07-02T07:51:40;100081.34;;;23.98;43.30
38227;BME280;24026;49.446;8.576;2023-07-02T07:54:01;100086.44;;;24.00;42.83
38227;BME280;24026;49.446;8.576;2023-07-02T07:56:21;100083.06;;;24.03;42.95
38227;BME280;24026;49.446;8.576;2023-07-02T07:58:41;100085.44;;;24.04;42.94
38227;BME280;24026;49.446;8.576;2023-07-02T08:01:02;100081.56;;;24.05;42.86
38227;BME280;24026;49.446;8.576;2023-07-02T08:03:22;100085.53;;;24.08;42.65
38227;BME280;24026;49.446;8.576;2023-07-02T08:05:43;100089.03;;;24.09;42.77
38227;BME280;24026;49.446;8.576;2023-07-02T08:08:03;100087.91;;;24.10;42.82
38227;BME280;24026;49.446;8.576;2023-07-02T08:10:24;100093.78;;;24.12;42.48
38227;BME280;24026;49.446;8.576;2023-07-02T08:12:45;100093.47;;;24.13;42.41
38227;BME280;24026;49.446;8.576;2023-07-02T08:15:07;100093.13;;;24.15;42.38
38227;BME280;24026;49.446;8.576;2023-07-02T08:17:28;100081.13;;;24.16;42.23
38227;BME280;24026;49.446;8.576;2023-07-02T08:19:51;100095.50;;;24.16;42.30
38227;BME280;24026;49.446;8.576;2023-07-02T08:22:12;100094.00;;;24.19;41.88
38227;BME280;24026;49.446;8.576;2023-07-02T08:24:32;100086.69;;;24.19;42.04
38227;BME280;24026;49.446;8.576;2023-07-02T08:26:53;100102.28;;;24.22;42.06
38227;BME280;24026;49.446;8.576;2023-07-02T08:29:14;100093.00;;;24.23;41.90
38227;BME280;24026;49.446;8.576;2023-07-02T08:31:34;100102.72;;;24.25;41.66
38227;BME280;24026;49.446;8.576;2023-07-02T08:33:55;100097.75;;;24.27;41.87
38227;BME280;24026;49.446;8.576;2023-07-02T08:36:15;100095.03;;;24.27;41.71
38227;BME280;24026;49.446;8.576;2023-07-02T08:38:36;100102.84;;;24.28;41.64
38227;BME280;24026;49.446;8.576;2023-07-02T08:40:59;100111.44;;;24.30;41.75
38227;BME280;24026;49.446;8.576;2023-07-02T08:43:20;100111.09;;;24.32;41.50
38227;BME280;24026;49.446;8.576;2023-07-02T08:45:41;100104.53;;;24.33;41.50
38227;BME280;24026;49.446;8.576;2023-07-02T08:48:02;100101.47;;;24.34;41.55
38227;BME280;24026;49.446;8.576;2023-07-02T08:50:23;100105.75;;;24.35;41.27
38227;BME280;24026;49.446;8.576;2023-07-02T08:52:44;100107.34;;;24.36;41.24
38227;BME280;24026;49.446;8.576;2023-07-02T08:55:05;100105.09;;;24.38;41.24
38227;BME280;24026;49.446;8.576;2023-07-02T08:57:26;100117.53;;;24.39;40.91
38227;BME280;24026;49.446;8.576;2023-07-02T08:59:46;100124.19;;;24.42;40.92
38227;BME280;24026;49.446;8.576;2023-07-02T09:02:07;100123.06;;;24.43;40.86
38227;BME280;24026;49.446;8.576;2023-07-02T09:04:28;100124.66;;;24.44;40.78
38227;BME280;24026;49.446;8.576;2023-07-02T09:06:51;100130.53;;;24.46;40.61
38227;BME280;24026;49.446;8.576;2023-07-02T09:09:22;100117.75;;;24.47;40.53
38227;BME280;24026;49.446;8.576;2023-07-02T09:11:49;100126.34;;;24.49;40.57
38227;BME280;24026;49.446;8.576;2023-07-02T09:14:10;100134.50;;;24.49;40.47
38227;BME280;24026;49.446;8.576;2023-07-02T09:16:31;100124.09;;;24.51;40.48
38227;BME280;24026;49.446;8.576;2023-07-02T09:21:19;100133.47;;;24.53;40.14
38227;BME280;24026;49.446;8.576;2023-07-02T09:23:39;100136.66;;;24.55;40.06
38227;BME280;24026;49.446;8.576;2023-07-02T09:26:00;100134.41;;;24.57;40.13
38227;BME280;24026;49.446;8.576;2023-07-02T09:28:23;100142.19;;;24.59;39.80
38227;BME280;24026;49.446;8.576;2023-07-02T09:33:15;100135.31;;;24.62;39.68
38227;BME280;24026;49.446;8.576;2023-07-02T09:35:36;100140.41;;;24.63;39.55
38227;BME280;24026;49.446;8.576;2023-07-02T09:37:58;100142.00;;;24.64;39.52
38227;BME280;24026;49.446;8.576;2023-07-02T09:40:18;100137.78;;;24.67;39.45
38227;BME280;24026;49.446;8.576;2023-07-02T09:42:41;100139.38;;;24.68;39.51
38227;BME280;24026;49.446;8.576;2023-07-02T09:45:02;100135.50;;;24.69;39.43
38227;BME280;24026;49.446;8.576;2023-07-02T09:47:23;100134.03;;;24.71;39.29
38227;BME280;24026;49.446;8.576;2023-07-02T09:49:57;100134.03;;;24.71;39.23
38227;BME280;24026;49.446;8.576;2023-07-02T09:52:18;100132.53;;;24.74;39.10
38227;BME280;24026;49.446;8.576;2023-07-02T09:54:41;100128.38;;;24.76;39.18
38227;BME280;24026;49.446;8.576;2023-07-02T09:57:03;100125.31;;;24.78;38.97
38227;BME280;24026;49.446;8.576;2023-07-02T09:59:24;100130.75;;;24.78;38.66
38227;BME280;24026;49.446;8.576;2023-07-02T10:01:44;100130.41;;;24.80;39.20
38227;BME280;24026;49.446;8.576;2023-07-02T10:04:14;100137.41;;;24.81;39.02
38227;BME280;24026;49.446;8.576;2023-07-02T10:06:53;100128.91;;;24.82;38.62
38227;BME280;24026;49.446;8.576;2023-07-02T10:09:15;100132.09;;;24.84;38.76
38227;BME280;24026;49.446;8.576;2023-07-02T10:11:35;100131.72;;;24.86;38.75
38227;BME280;24026;49.446;8.576;2023-07-02T10:13:59;100134.91;;;24.88;38.67
38227;BME280;24026;49.446;8.576;2023-07-02T10:16:19;100133.75;;;24.89;38.74
38227;BME280;24026;49.446;8.576;2023-07-02T10:18:40;100133.41;;;24.90;38.41
38227;BME280;24026;49.446;8.576;2023-07-02T10:21:12;100130.69;;;24.90;38.42
38227;BME280;24026;49.446;8.576;2023-07-02T10:23:34;100125.34;;;24.94;38.33
38227;BME280;24026;49.446;8.576;2023-07-02T10:25:55;100132.03;;;24.96;38.38
38227;BME280;24026;49.446;8.576;2023-07-02T10:28:19;100123.91;;;24.96;38.05
38227;BME280;24026;49.446;8.576;2023-07-02T10:30:40;100128.66;;;24.87;38.22
38227;BME280;24026;49.446;8.576;2023-07-02T10:33:17;100132.72;;;24.93;38.15
38227;BME280;24026;49.446;8.576;2023-07-02T10:35:40;100128.19;;;24.98;37.81
38227;BME280;24026;49.446;8.576;2023-07-02T10:38:05;100123.22;;;25.00;37.84
38227;BME280;24026;49.446;8.576;2023-07-02T10:40:26;100130.69;;;25.03;37.76
38227;BME280;24026;49.446;8.576;2023-07-02T10:42:49;100122.97;;;25.05;37.59
38227;BME280;24026;49.446;8.576;2023-07-02T10:45:09;100118.31;;;25.05;37.51
38227;BME280;24026;49.446;8.576;2023-07-02T10:47:30;100122.28;;;25.08;37.30
38227;BME280;24026;49.446;8.576;2023-07-02T10:49:50;100125.78;;;25.08;37.28
38227;BME280;24026;49.446;8.576;2023-07-02T10:52:11;100128.94;;;25.10;37.09
38227;BME280;24026;49.446;8.576;2023-07-02T10:54:43;100125.44;;;25.10;37.22
38227;BME280;24026;49.446;8.576;2023-07-02T10:57:03;100124.75;;;25.13;37.14
38227;BME280;24026;49.446;8.576;2023-07-02T10:59:25;100117.03;;;25.15;37.32
38227;BME280;24026;49.446;8.576;2023-07-02T11:01:50;100111.25;;;25.17;37.21
38227;BME280;24026;49.446;8.576;2023-07-02T11:04:11;100107.03;;;25.19;36.95
38227;BME280;24026;49.446;8.576;2023-07-02T11:06:32;100106.69;;;25.21;36.91
38227;BME280;24026;49.446;8.576;2023-07-02T11:08:53;100122.66;;;25.22;36.96
38227;BME280;24026;49.446;8.576;2023-07-02T11:11:15;100114.97;;;25.24;36.65
38227;BME280;24026;49.446;8.576;2023-07-02T11:13:44;100124.69;;;25.25;36.81
38227;BME280;24026;49.446;8.576;2023-07-02T11:16:19;100113.81;;;25.25;36.77
38227;BME280;24026;49.446;8.576;2023-07-02T11:18:40;100102.25;;;25.28;36.75
38227;BME280;24026;49.446;8.576;2023-07-02T11:21:09;100103.84;;;25.29;36.50
38227;BME280;24026;49.446;8.576;2023-07-02T11:23:34;100120.63;;;25.31;36.61
38227;BME280;24026;49.446;8.576;2023-07-02T11:25:56;100116.38;;;25.34;36.47
38227;BME280;24026;49.446;8.576;2023-07-02T11:28:17;100114.47;;;25.35;36.71
38227;BME280;24026;49.446;8.576;2023-07-02T11:30:45;100114.91;;;25.37;36.55
38227;BME280;24026;49.446;8.576;2023-07-02T11:33:05;100112.63;;;25.39;36.44
38227;BME280;24026;49.446;8.576;2023-07-02T11:35:35;100113.41;;;25.39;36.42
38227;BME280;24026;49.446;8.576;2023-07-02T11:37:56;100110.00;;;25.42;36.31
38227;BME280;24026;49.446;8.576;2023-07-02T11:40:19;100100.72;;;25.43;35.94
38227;BME280;24026;49.446;8.576;2023-07-02T11:42:40;100109.66;;;25.44;35.88
38227;BME280;24026;49.446;8.576;2023-07-02T11:45:01;100098.44;;;25.45;36.11
38227;BME280;24026;49.446;8.576;2023-07-02T11:47:21;100097.75;;;25.48;35.88
38227;BME280;24026;49.446;8.576;2023-07-02T11:49:42;100108.28;;;25.50;36.05
38227;BME280;24026;49.446;8.576;2023-07-02T11:52:02;100106.34;;;25.50;35.96
38227;BME280;24026;49.446;8.576;2023-07-02T11:54:23;100108.72;;;25.52;35.81
38227;BME280;24026;49.446;8.576;2023-07-02T11:56:43;100098.25;;;25.54;35.76
38227;BME280;24026;49.446;8.576;2023-07-02T11:59:04;100095.19;;;25.56;35.70
38227;BME280;24026;49.446;8.576;2023-07-02T12:01:24;100112.31;;;25.56;35.65
38227;BME280;24026;49.446;8.576;2023-07-02T12:03:45;100114.31;;;25.59;35.43
38227;BME280;24026;49.446;8.576;2023-07-02T12:06:05;100103.91;;;25.61;35.64
38227;BME280;24026;49.446;8.576;2023-07-02T12:08:26;100105.47;;;25.62;35.48
38227;BME280;24026;49.446;8.576;2023-07-02T12:10:46;100104.34;;;25.63;35.27
38227;BME280;24026;49.446;8.576;2023-07-02T12:13:07;100100.47;;;25.64;35.55
38227;BME280;24026;49.446;8.576;2023-07-02T12:15:27;100092.75;;;25.66;35.29
38227;BME280;24026;49.446;8.576;2023-07-02T12:17:48;100088.53;;;25.69;35.44
38227;BME280;24026;49.446;8.576;2023-07-02T12:20:09;100082.31;;;25.68;35.38
38227;BME280;24026;49.446;8.576;2023-07-02T12:22:29;100087.41;;;25.70;35.30
38227;BME280;24026;49.446;8.576;2023-07-02T12:24:50;100080.44;;;25.73;35.13
38227;BME280;24026;49.446;8.576;2023-07-02T12:27:10;100091.34;;;25.73;34.93